6A5 weather

Public forecast

Using degrees Fahrenheit for public forecast. Weather courtesy of forecast.io.

Closest aviation weather report (METAR) to Warf Airport

Closest report is Rockingham County NC Shiloh Airport, 10.0 nm (18.5 km) NW. Retrieved 2020/08/10 07:35 UTC (25 minutes ago):

KSIF 100735Z AUTO 00000KT 4SM BR CLR 20/20 A3011 RMK AO2 T01970195

Closest aviation forecast (TAF) to Warf Airport

Closest forecast is Piedmont Triad International Airport, 17.2 nm (31.9 km) SW. Retrieved 2020/08/10 06:46 UTC (1 hour ago):

TAF KGSO 100540Z 1006/1106 20003KT P6SM FEW110 SCT250 TEMPO 1010/1013 6SM BR FEW005 FM101700 17004KT P6SM SCT045 SCT110 BKN250 PROB30 1020/1024 VRB15G25KT TS BKN050CB OVC110